sensor_id;sensor_type;location;lat;lon;timestamp;temperature;humidity
38325;DHT22;24126;52.672;13.622;2023-02-12T00:00:01;11.90;80.30
38325;DHT22;24126;52.672;13.622;2023-02-12T00:02:28;11.90;80.40
38325;DHT22;24126;52.672;13.622;2023-02-12T00:04:55;11.90;80.40
38325;DHT22;24126;52.672;13.622;2023-02-12T00:07:22;11.90;80.40
38325;DHT22;24126;52.672;13.622;2023-02-12T00:09:49;11.90;80.40
38325;DHT22;24126;52.672;13.622;2023-02-12T00:12:16;11.90;80.40
38325;DHT22;24126;52.672;13.622;2023-02-12T00:14:43;11.90;80.40
38325;DHT22;24126;52.672;13.622;2023-02-12T00:17:10;11.80;80.40
38325;DHT22;24126;52.672;13.622;2023-02-12T00:19:37;11.80;80.30
38325;DHT22;24126;52.672;13.622;2023-02-12T00:22:04;11.80;80.30
38325;DHT22;24126;52.672;13.622;2023-02-12T00:24:31;11.80;80.30
38325;DHT22;24126;52.672;13.622;2023-02-12T00:26:58;11.80;80.30
38325;DHT22;24126;52.672;13.622;2023-02-12T00:29:25;11.80;80.30
38325;DHT22;24126;52.672;13.622;2023-02-12T00:31:52;11.80;80.30
38325;DHT22;24126;52.672;13.622;2023-02-12T00:34:19;11.80;80.40
38325;DHT22;24126;52.672;13.622;2023-02-12T00:36:47;11.80;80.30
38325;DHT22;24126;52.672;13.622;2023-02-12T00:39:14;11.80;80.30
38325;DHT22;24126;52.672;13.622;2023-02-12T00:41:40;11.80;80.30
38325;DHT22;24126;52.672;13.622;2023-02-12T00:44:07;11.80;80.20
38325;DHT22;24126;52.672;13.622;2023-02-12T00:46:34;11.80;80.20
38325;DHT22;24126;52.672;13.622;2023-02-12T00:49:02;11.70;80.30
38325;DHT22;24126;52.672;13.622;2023-02-12T00:51:29;11.80;80.30
38325;DHT22;24126;52.672;13.622;2023-02-12T00:53:56;11.70;80.20
38325;DHT22;24126;52.672;13.622;2023-02-12T00:56:23;11.70;80.30
38325;DHT22;24126;52.672;13.622;2023-02-12T00:58:50;11.70;80.30
38325;DHT22;24126;52.672;13.622;2023-02-12T01:01:17;11.70;80.30
38325;DHT22;24126;52.672;13.622;2023-02-12T01:03:44;11.80;80.20
38325;DHT22;24126;52.672;13.622;2023-02-12T01:06:11;11.80;80.20
38325;DHT22;24126;52.672;13.622;2023-02-12T01:08:38;11.70;80.10
38325;DHT22;24126;52.672;13.622;2023-02-12T01:11:05;11.70;80.10
38325;DHT22;24126;52.672;13.622;2023-02-12T01:13:32;11.70;80.10
38325;DHT22;24126;52.672;13.622;2023-02-12T01:16:08;11.70;80.00
38325;DHT22;24126;52.672;13.622;2023-02-12T01:18:37;11.70;80.10
38325;DHT22;24126;52.672;13.622;2023-02-12T01:21:12;11.70;80.10
38325;DHT22;24126;52.672;13.622;2023-02-12T01:23:40;11.70;80.10
38325;DHT22;24126;52.672;13.622;2023-02-12T01:26:07;11.70;80.00
38325;DHT22;24126;52.672;13.622;2023-02-12T01:28:36;11.70;80.00
38325;DHT22;24126;52.672;13.622;2023-02-12T01:31:07;11.70;80.00
38325;DHT22;24126;52.672;13.622;2023-02-12T01:33:34;11.70;80.00
38325;DHT22;24126;52.672;13.622;2023-02-12T01:36:01;11.70;80.00
38325;DHT22;24126;52.672;13.622;2023-02-12T01:38:28;11.70;80.00
38325;DHT22;24126;52.672;13.622;2023-02-12T01:41:02;11.70;80.00
38325;DHT22;24126;52.672;13.622;2023-02-12T01:43:32;11.70;80.00
38325;DHT22;24126;52.672;13.622;2023-02-12T01:45:59;11.70;79.90
38325;DHT22;24126;52.672;13.622;2023-02-12T01:48:27;11.60;79.80
38325;DHT22;24126;52.672;13.622;2023-02-12T01:50:55;11.60;79.70
38325;DHT22;24126;52.672;13.622;2023-02-12T01:53:24;11.60;79.70
38325;DHT22;24126;52.672;13.622;2023-02-12T01:55:55;11.60;79.70
38325;DHT22;24126;52.672;13.622;2023-02-12T01:58:24;11.60;79.80
38325;DHT22;24126;52.672;13.622;2023-02-12T02:00:52;11.60;79.80
38325;DHT22;24126;52.672;13.622;2023-02-12T02:03:19;11.60;79.80
38325;DHT22;24126;52.672;13.622;2023-02-12T02:05:53;11.60;79.90
38325;DHT22;24126;52.672;13.622;2023-02-12T02:08:21;11.50;79.80
38325;DHT22;24126;52.672;13.622;2023-02-12T02:10:48;11.50;79.80
38325;DHT22;24126;52.672;13.622;2023-02-12T02:13:16;11.50;79.80
38325;DHT22;24126;52.672;13.622;2023-02-12T02:16:23;11.50;79.70
38325;DHT22;24126;52.672;13.622;2023-02-12T02:18:55;11.50;79.70
38325;DHT22;24126;52.672;13.622;2023-02-12T02:21:34;11.50;79.80
38325;DHT22;24126;52.672;13.622;2023-02-12T02:29:10;11.50;79.80
38325;DHT22;24126;52.672;13.622;2023-02-12T02:31:41;11.50;79.80
38325;DHT22;24126;52.672;13.622;2023-02-12T02:42:15;11.50;80.40
38325;DHT22;24126;52.672;13.622;2023-02-12T02:44:44;11.50;79.80
38325;DHT22;24126;52.672;13.622;2023-02-12T02:47:13;11.50;79.80
38325;DHT22;24126;52.672;13.622;2023-02-12T02:49:49;11.50;79.70
38325;DHT22;24126;52.672;13.622;2023-02-12T02:52:18;11.50;79.80
38325;DHT22;24126;52.672;13.622;2023-02-12T02:54:47;11.50;79.70
38325;DHT22;24126;52.672;13.622;2023-02-12T02:57:24;11.50;79.80
38325;DHT22;24126;52.672;13.622;2023-02-12T02:59:53;11.50;79.80
38325;DHT22;24126;52.672;13.622;2023-02-12T03:02:26;11.50;79.70
38325;DHT22;24126;52.672;13.622;2023-02-12T03:04:57;11.50;79.60
38325;DHT22;24126;52.672;13.622;2023-02-12T03:07:27;11.50;79.60
38325;DHT22;24126;52.672;13.622;2023-02-12T03:09:56;11.50;79.60
38325;DHT22;24126;52.672;13.622;2023-02-12T03:12:27;11.50;79.60
38325;DHT22;24126;52.672;13.622;2023-02-12T03:15:00;11.50;79.60
38325;DHT22;24126;52.672;13.622;2023-02-12T03:17:30;11.50;79.50
38325;DHT22;24126;52.672;13.622;2023-02-12T03:20:00;11.50;79.50
38325;DHT22;24126;52.672;13.622;2023-02-12T03:22:33;11.50;79.40
38325;DHT22;24126;52.672;13.622;2023-02-12T03:25:03;11.50;79.40
38325;DHT22;24126;52.672;13.622;2023-02-12T03:27:38;11.50;79.40
38325;DHT22;24126;52.672;13.622;2023-02-12T03:30:07;11.40;79.40
38325;DHT22;24126;52.672;13.622;2023-02-12T03:32:54;11.40;79.40
38325;DHT22;24126;52.672;13.622;2023-02-12T03:35:29;11.40;79.40
38325;DHT22;24126;52.672;13.622;2023-02-12T03:38:06;11.50;79.30
38325;DHT22;24126;52.672;13.622;2023-02-12T03:40:52;11.50;79.30
38325;DHT22;24126;52.672;13.622;2023-02-12T03:43:22;11.40;79.20
38325;DHT22;24126;52.672;13.622;2023-02-12T03:46:07;11.40;79.20
38325;DHT22;24126;52.672;13.622;2023-02-12T03:48:43;11.40;79.20
38325;DHT22;24126;52.672;13.622;2023-02-12T03:51:19;11.40;79.20
38325;DHT22;24126;52.672;13.622;2023-02-12T03:53:48;11.40;79.10
38325;DHT22;24126;52.672;13.622;2023-02-12T03:56:23;11.40;79.10
38325;DHT22;24126;52.672;13.622;2023-02-12T03:58:50;11.40;79.20
38325;DHT22;24126;52.672;13.622;2023-02-12T04:01:17;11.40;79.20
38325;DHT22;24126;52.672;13.622;2023-02-12T04:03:44;11.40;79.20
38325;DHT22;24126;52.672;13.622;2023-02-12T04:06:25;11.40;79.20
38325;DHT22;24126;52.672;13.622;2023-02-12T04:08:54;11.40;79.10
38325;DHT22;24126;52.672;13.622;2023-02-12T04:16:39;11.40;79.00
38325;DHT22;24126;52.672;13.622;2023-02-12T04:19:07;11.40;79.00
38325;DHT22;24126;52.672;13.622;2023-02-12T04:26:38;11.40;79.00
38325;DHT22;24126;52.672;13.622;2023-02-12T04:29:12;11.40;79.00
38325;DHT22;24126;52.672;13.622;2023-02-12T04:31:44;11.40;79.00
38325;DHT22;24126;52.672;13.622;2023-02-12T04:34:13;11.40;79.00
38325;DHT22;24126;52.672;13.622;2023-02-12T04:36:44;11.40;79.00
38325;DHT22;24126;52.672;13.622;2023-02-12T04:39:16;11.40;78.90
38325;DHT22;24126;52.672;13.622;2023-02-12T04:41:43;11.40;78.90
38325;DHT22;24126;52.672;13.622;2023-02-12T04:44:15;11.40;78.90
38325;DHT22;24126;52.672;13.622;2023-02-12T04:46:42;11.30;78.80
38325;DHT22;24126;52.672;13.622;2023-02-12T04:49:11;11.40;78.90
38325;DHT22;24126;52.672;13.622;2023-02-12T04:51:39;11.30;78.80
38325;DHT22;24126;52.672;13.622;2023-02-12T04:54:07;11.30;78.80
38325;DHT22;24126;52.672;13.622;2023-02-12T04:56:34;11.30;78.80
38325;DHT22;24126;52.672;13.622;2023-02-12T04:59:01;11.30;78.80
38325;DHT22;24126;52.672;13.622;2023-02-12T05:01:28;11.30;78.90
38325;DHT22;24126;52.672;13.622;2023-02-12T05:03:55;11.30;78.80
38325;DHT22;24126;52.672;13.622;2023-02-12T05:06:22;11.30;78.80
38325;DHT22;24126;52.672;13.622;2023-02-12T05:08:51;11.30;78.80
38325;DHT22;24126;52.672;13.622;2023-02-12T05:11:18;11.30;78.80
38325;DHT22;24126;52.672;13.622;2023-02-12T05:13:49;11.30;78.80
38325;DHT22;24126;52.672;13.622;2023-02-12T05:16:16;11.30;78.80
38325;DHT22;24126;52.672;13.622;2023-02-12T05:18:43;11.30;78.80
38325;DHT22;24126;52.672;13.622;2023-02-12T05:21:11;11.30;78.80
38325;DHT22;24126;52.672;13.622;2023-02-12T05:23:38;11.30;78.70
38325;DHT22;24126;52.672;13.622;2023-02-12T05:26:16;11.30;78.80
38325;DHT22;24126;52.672;13.622;2023-02-12T05:28:43;11.30;78.70
38325;DHT22;24126;52.672;13.622;2023-02-12T05:31:13;11.30;79.40
38325;DHT22;24126;52.672;13.622;2023-02-12T05:33:41;11.30;78.70
38325;DHT22;24126;52.672;13.622;2023-02-12T05:36:10;11.30;78.70
38325;DHT22;24126;52.672;13.622;2023-02-12T05:38:41;11.30;78.70
38325;DHT22;24126;52.672;13.622;2023-02-12T05:41:09;11.30;78.70
38325;DHT22;24126;52.672;13.622;2023-02-12T05:43:37;11.30;78.70
38325;DHT22;24126;52.672;13.622;2023-02-12T05:46:04;11.30;78.70
38325;DHT22;24126;52.672;13.622;2023-02-12T05:48:32;11.30;78.70
38325;DHT22;24126;52.672;13.622;2023-02-12T05:51:06;11.30;78.70
38325;DHT22;24126;52.672;13.622;2023-02-12T05:53:34;11.30;78.70
38325;DHT22;24126;52.672;13.622;2023-02-12T05:56:21;11.30;78.70
38325;DHT22;24126;52.672;13.622;2023-02-12T05:58:55;11.30;78.60
38325;DHT22;24126;52.672;13.622;2023-02-12T06:01:36;11.30;78.50
38325;DHT22;24126;52.672;13.622;2023-02-12T06:04:05;11.30;78.50
38325;DHT22;24126;52.672;13.622;2023-02-12T06:06:32;11.30;78.40
38325;DHT22;24126;52.672;13.622;2023-02-12T06:09:00;11.30;78.40
38325;DHT22;24126;52.672;13.622;2023-02-12T06:11:27;11.20;78.10
38325;DHT22;24126;52.672;13.622;2023-02-12T06:13:54;11.20;78.10
38325;DHT22;24126;52.672;13.622;2023-02-12T06:16:22;11.20;78.40
38325;DHT22;24126;52.672;13.622;2023-02-12T06:18:50;11.20;78.30
38325;DHT22;24126;52.672;13.622;2023-02-12T06:21:18;11.20;78.20
38325;DHT22;24126;52.672;13.622;2023-02-12T06:23:45;11.20;78.20
38325;DHT22;24126;52.672;13.622;2023-02-12T06:26:12;11.20;78.20
38325;DHT22;24126;52.672;13.622;2023-02-12T06:28:39;11.20;78.30
38325;DHT22;24126;52.672;13.622;2023-02-12T06:31:16;11.20;78.30
38325;DHT22;24126;52.672;13.622;2023-02-12T06:33:43;11.20;78.30
38325;DHT22;24126;52.672;13.622;2023-02-12T06:36:10;11.10;78.20
38325;DHT22;24126;52.672;13.622;2023-02-12T06:38:37;11.20;78.30
38325;DHT22;24126;52.672;13.622;2023-02-12T06:41:04;11.10;78.20
38325;DHT22;24126;52.672;13.622;2023-02-12T06:43:31;11.10;78.10
38325;DHT22;24126;52.672;13.622;2023-02-12T06:45:59;11.10;78.20
38325;DHT22;24126;52.672;13.622;2023-02-12T06:48:26;11.10;78.20
38325;DHT22;24126;52.672;13.622;2023-02-12T06:50:53;11.10;78.20
38325;DHT22;24126;52.672;13.622;2023-02-12T06:53:20;11.10;78.20
38325;DHT22;24126;52.672;13.622;2023-02-12T06:55:47;11.10;78.00
38325;DHT22;24126;52.672;13.622;2023-02-12T06:58:14;11.10;77.90
38325;DHT22;24126;52.672;13.622;2023-02-12T07:00:41;11.00;77.80
38325;DHT22;24126;52.672;13.622;2023-02-12T07:03:08;11.00;77.90
38325;DHT22;24126;52.672;13.622;2023-02-12T07:05:38;10.90;77.90
38325;DHT22;24126;52.672;13.622;2023-02-12T07:08:04;11.00;78.00
38325;DHT22;24126;52.672;13.622;2023-02-12T07:10:32;10.90;78.10
38325;DHT22;24126;52.672;13.622;2023-02-12T07:12:59;11.00;78.10
38325;DHT22;24126;52.672;13.622;2023-02-12T07:15:25;10.90;78.20
38325;DHT22;24126;52.672;13.622;2023-02-12T07:17:53;10.90;78.20
38325;DHT22;24126;52.672;13.622;2023-02-12T07:20:20;10.90;78.20
38325;DHT22;24126;52.672;13.622;2023-02-12T07:22:47;10.90;78.30
38325;DHT22;24126;52.672;13.622;2023-02-12T07:25:14;11.00;78.40
38325;DHT22;24126;52.672;13.622;2023-02-12T07:27:41;11.00;78.40
38325;DHT22;24126;52.672;13.622;2023-02-12T07:30:08;11.00;78.40
38325;DHT22;24126;52.672;13.622;2023-02-12T07:32:35;11.00;78.40
38325;DHT22;24126;52.672;13.622;2023-02-12T07:35:02;11.00;78.40
38325;DHT22;24126;52.672;13.622;2023-02-12T07:37:29;11.00;78.40
38325;DHT22;24126;52.672;13.622;2023-02-12T07:39:56;11.00;78.40
38325;DHT22;24126;52.672;13.622;2023-02-12T07:42:24;11.00;78.50
38325;DHT22;24126;52.672;13.622;2023-02-12T07:44:51;11.00;78.50
38325;DHT22;24126;52.672;13.622;2023-02-12T07:47:18;11.00;78.50
38325;DHT22;24126;52.672;13.622;2023-02-12T07:49:45;11.10;78.60
38325;DHT22;24126;52.672;13.622;2023-02-12T07:52:12;11.10;78.60
38325;DHT22;24126;52.672;13.622;2023-02-12T07:54:39;11.10;78.60
38325;DHT22;24126;52.672;13.622;2023-02-12T07:57:06;11.10;78.60
38325;DHT22;24126;52.672;13.622;2023-02-12T07:59:33;11.20;78.70
38325;DHT22;24126;52.672;13.622;2023-02-12T08:02:00;11.20;78.70
38325;DHT22;24126;52.672;13.622;2023-02-12T08:04:27;11.20;78.70
38325;DHT22;24126;52.672;13.622;2023-02-12T08:06:55;11.20;78.70
38325;DHT22;24126;52.672;13.622;2023-02-12T08:09:23;11.20;78.80
38325;DHT22;24126;52.672;13.622;2023-02-12T08:11:50;11.30;78.90
38325;DHT22;24126;52.672;13.622;2023-02-12T08:14:18;11.30;78.90
38325;DHT22;24126;52.672;13.622;2023-02-12T08:16:46;11.30;78.80
38325;DHT22;24126;52.672;13.622;2023-02-12T08:19:13;11.40;78.80
38325;DHT22;24126;52.672;13.622;2023-02-12T08:21:40;11.40;78.80
38325;DHT22;24126;52.672;13.622;2023-02-12T08:24:08;11.40;78.80
38325;DHT22;24126;52.672;13.622;2023-02-12T08:26:36;11.50;78.90
38325;DHT22;24126;52.672;13.622;2023-02-12T08:29:04;11.50;78.90
38325;DHT22;24126;52.672;13.622;2023-02-12T08:31:33;11.50;78.80
38325;DHT22;24126;52.672;13.622;2023-02-12T08:34:00;11.50;78.80
38325;DHT22;24126;52.672;13.622;2023-02-12T08:36:34;11.60;78.80
38325;DHT22;24126;52.672;13.622;2023-02-12T08:39:02;11.60;78.70
38325;DHT22;24126;52.672;13.622;2023-02-12T08:41:29;11.60;78.70
38325;DHT22;24126;52.672;13.622;2023-02-12T08:43:58;11.60;78.70
38325;DHT22;24126;52.672;13.622;2023-02-12T08:46:35;11.60;78.70
38325;DHT22;24126;52.672;13.622;2023-02-12T08:49:04;11.70;78.80
38325;DHT22;24126;52.672;13.622;2023-02-12T08:51:32;11.70;78.70
38325;DHT22;24126;52.672;13.622;2023-02-12T08:54:01;11.80;78.70
38325;DHT22;24126;52.672;13.622;2023-02-12T08:56:29;11.80;78.70
38325;DHT22;24126;52.672;13.622;2023-02-12T08:58:57;11.80;78.50
38325;DHT22;24126;52.672;13.622;2023-02-12T09:01:25;11.80;78.50
38325;DHT22;24126;52.672;13.622;2023-02-12T09:03:52;11.90;78.70
38325;DHT22;24126;52.672;13.622;2023-02-12T09:06:20;11.90;78.60
38325;DHT22;24126;52.672;13.622;2023-02-12T09:08:48;11.90;78.50
38325;DHT22;24126;52.672;13.622;2023-02-12T09:11:16;11.90;78.50
38325;DHT22;24126;52.672;13.622;2023-02-12T09:13:44;11.90;78.50
38325;DHT22;24126;52.672;13.622;2023-02-12T09:16:12;12.00;78.40
38325;DHT22;24126;52.672;13.622;2023-02-12T09:18:40;12.00;78.40
38325;DHT22;24126;52.672;13.622;2023-02-12T09:21:08;12.00;78.30
38325;DHT22;24126;52.672;13.622;2023-02-12T09:23:36;12.00;78.20
38325;DHT22;24126;52.672;13.622;2023-02-12T09:26:04;12.00;78.20
38325;DHT22;24126;52.672;13.622;2023-02-12T09:28:32;12.00;78.30
38325;DHT22;24126;52.672;13.622;2023-02-12T09:31:03;12.10;78.30
38325;DHT22;24126;52.672;13.622;2023-02-12T09:33:30;12.10;78.30
38325;DHT22;24126;52.672;13.622;2023-02-12T09:36:01;12.10;78.30
38325;DHT22;24126;52.672;13.622;2023-02-12T09:38:29;12.20;78.40
38325;DHT22;24126;52.672;13.622;2023-02-12T09:41:04;12.20;78.40
38325;DHT22;24126;52.672;13.622;2023-02-12T09:43:39;12.30;78.30
38325;DHT22;24126;52.672;13.622;2023-02-12T09:51:27;12.40;78.30
38325;DHT22;24126;52.672;13.622;2023-02-12T09:54:00;12.40;78.30
38325;DHT22;24126;52.672;13.622;2023-02-12T09:56:28;12.50;78.30
38325;DHT22;24126;52.672;13.622;2023-02-12T09:58:58;12.50;78.20
38325;DHT22;24126;52.672;13.622;2023-02-12T10:01:26;12.50;78.10
38325;DHT22;24126;52.672;13.622;2023-02-12T10:03:53;12.60;78.10
38325;DHT22;24126;52.672;13.622;2023-02-12T10:06:28;12.50;78.10
38325;DHT22;24126;52.672;13.622;2023-02-12T10:14:13;12.70;78.20
38325;DHT22;24126;52.672;13.622;2023-02-12T10:22:02;12.80;77.70
38325;DHT22;24126;52.672;13.622;2023-02-12T10:27:02;12.80;77.60
38325;DHT22;24126;52.672;13.622;2023-02-12T10:29:32;12.80;77.70
38325;DHT22;24126;52.672;13.622;2023-02-12T10:32:04;12.80;77.80
38325;DHT22;24126;52.672;13.622;2023-02-12T10:34:34;12.80;77.80
38325;DHT22;24126;52.672;13.622;2023-02-12T10:39:52;12.90;77.90
38325;DHT22;24126;52.672;13.622;2023-02-12T10:42:38;12.90;77.80
38325;DHT22;24126;52.672;13.622;2023-02-12T10:45:10;12.90;77.70
38325;DHT22;24126;52.672;13.622;2023-02-12T10:47:38;12.90;77.70
38325;DHT22;24126;52.672;13.622;2023-02-12T10:50:40;12.90;77.70
38325;DHT22;24126;52.672;13.622;2023-02-12T10:52:59;12.90;77.70
38325;DHT22;24126;52.672;13.622;2023-02-12T10:55:29;12.80;77.70
38325;DHT22;24126;52.672;13.622;2023-02-12T10:57:57;12.80;77.80
38325;DHT22;24126;52.672;13.622;2023-02-12T11:03:26;12.80;78.10
38325;DHT22;24126;52.672;13.622;2023-02-12T11:05:46;12.90;78.40
38325;DHT22;24126;52.672;13.622;2023-02-12T11:10:53;13.00;78.40
38325;DHT22;24126;52.672;13.622;2023-02-12T11:13:21;13.00;78.20
38325;DHT22;24126;52.672;13.622;2023-02-12T11:15:49;13.00;78.20
38325;DHT22;24126;52.672;13.622;2023-02-12T11:20:55;13.00;78.10
38325;DHT22;24126;52.672;13.622;2023-02-12T11:25:54;12.90;78.00
38325;DHT22;24126;52.672;13.622;2023-02-12T11:28:21;13.00;78.10
38325;DHT22;24126;52.672;13.622;2023-02-12T11:30:49;12.90;78.10
38325;DHT22;24126;52.672;13.622;2023-02-12T11:33:21;12.90;78.10
38325;DHT22;24126;52.672;13.622;2023-02-12T11:35:52;12.90;78.20
38325;DHT22;24126;52.672;13.622;2023-02-12T11:38:22;12.90;78.30
38325;DHT22;24126;52.672;13.622;2023-02-12T11:40:50;12.90;78.40
38325;DHT22;24126;52.672;13.622;2023-02-12T11:43:18;12.80;78.30
38325;DHT22;24126;52.672;13.622;2023-02-12T11:45:48;12.80;78.40
38325;DHT22;24126;52.672;13.622;2023-02-12T11:48:20;12.80;78.40
38325;DHT22;24126;52.672;13.622;2023-02-12T11:50:50;12.80;78.50
38325;DHT22;24126;52.672;13.622;2023-02-12T11:53:19;12.80;78.50
38325;DHT22;24126;52.672;13.622;2023-02-12T11:55:52;12.80;78.60
38325;DHT22;24126;52.672;13.622;2023-02-12T11:58:20;12.80;78.60
38325;DHT22;24126;52.672;13.622;2023-02-12T12:03:36;12.70;78.60
38325;DHT22;24126;52.672;13.622;2023-02-12T12:06:20;12.70;78.60
38325;DHT22;24126;52.672;13.622;2023-02-12T12:14:23;12.80;78.40
38325;DHT22;24126;52.672;13.622;2023-02-12T12:17:04;12.80;78.30
38325;DHT22;24126;52.672;13.622;2023-02-12T12:41:21;13.20;77.80
38325;DHT22;24126;52.672;13.622;2023-02-12T12:44:00;13.40;77.50
38325;DHT22;24126;52.672;13.622;2023-02-12T12:46:39;13.40;77.10
38325;DHT22;24126;52.672;13.622;2023-02-12T12:56:53;13.70;76.10
38325;DHT22;24126;52.672;13.622;2023-02-12T12:59:26;13.70;75.90
38325;DHT22;24126;52.672;13.622;2023-02-12T13:02:02;13.70;75.60
38325;DHT22;24126;52.672;13.622;2023-02-12T13:09:44;13.70;75.10
38325;DHT22;24126;52.672;13.622;2023-02-12T13:12:17;13.70;75.30
38325;DHT22;24126;52.672;13.622;2023-02-12T13:23:01;13.80;74.30
38325;DHT22;24126;52.672;13.622;2023-02-12T13:25:33;13.80;74.20
38325;DHT22;24126;52.672;13.622;2023-02-12T13:28:04;13.90;73.80
38325;DHT22;24126;52.672;13.622;2023-02-12T13:30:40;13.80;73.70
38325;DHT22;24126;52.672;13.622;2023-02-12T13:33:19;13.90;73.70
38325;DHT22;24126;52.672;13.622;2023-02-12T13:35:48;13.90;73.50
38325;DHT22;24126;52.672;13.622;2023-02-12T13:38:21;13.90;73.30
38325;DHT22;24126;52.672;13.622;2023-02-12T13:40:57;13.90;74.00
38325;DHT22;24126;52.672;13.622;2023-02-12T13:43:37;13.90;73.30
38325;DHT22;24126;52.672;13.622;2023-02-12T13:56:53;14.00;73.00
38325;DHT22;24126;52.672;13.622;2023-02-12T14:02:41;14.10;73.50
38325;DHT22;24126;52.672;13.622;2023-02-12T14:04:56;14.00;72.70
38325;DHT22;24126;52.672;13.622;2023-02-12T14:07:41;14.10;72.50
38325;DHT22;24126;52.672;13.622;2023-02-12T14:10:32;14.10;72.50
38325;DHT22;24126;52.672;13.622;2023-02-12T14:13:16;14.10;72.40
38325;DHT22;24126;52.672;13.622;2023-02-12T14:15:47;14.10;72.50
38325;DHT22;24126;52.672;13.622;2023-02-12T14:18:23;14.10;72.50
38325;DHT22;24126;52.672;13.622;2023-02-12T14:23:37;14.00;72.40
38325;DHT22;24126;52.672;13.622;2023-02-12T14:39:05;14.00;73.30
38325;DHT22;24126;52.672;13.622;2023-02-12T14:41:51;13.90;73.20
38325;DHT22;24126;52.672;13.622;2023-02-12T14:51:52;13.90;73.50
38325;DHT22;24126;52.672;13.622;2023-02-12T14:54:25;13.90;73.40
38325;DHT22;24126;52.672;13.622;2023-02-12T14:56:53;13.90;73.50
38325;DHT22;24126;52.672;13.622;2023-02-12T14:59:22;13.90;73.60
38325;DHT22;24126;52.672;13.622;2023-02-12T15:01:50;13.80;73.50
38325;DHT22;24126;52.672;13.622;2023-02-12T15:04:27;13.80;73.60
38325;DHT22;24126;52.672;13.622;2023-02-12T15:07:13;13.80;73.70
38325;DHT22;24126;52.672;13.622;2023-02-12T15:09:46;13.80;73.70
38325;DHT22;24126;52.672;13.622;2023-02-12T15:12:19;13.70;73.70
38325;DHT22;24126;52.672;13.622;2023-02-12T15:14:50;13.70;73.70
38325;DHT22;24126;52.672;13.622;2023-02-12T15:17:25;13.60;73.80
38325;DHT22;24126;52.672;13.622;2023-02-12T15:20:02;13.70;73.90
38325;DHT22;24126;52.672;13.622;2023-02-12T15:22:35;13.60;73.80
38325;DHT22;24126;52.672;13.622;2023-02-12T15:27:49;13.60;74.00
38325;DHT22;24126;52.672;13.622;2023-02-12T15:30:16;13.50;73.90
38325;DHT22;24126;52.672;13.622;2023-02-12T15:32:44;13.50;74.00
38325;DHT22;24126;52.672;13.622;2023-02-12T15:35:19;13.50;74.00
38325;DHT22;24126;52.672;13.622;2023-02-12T15:37:48;13.40;74.00
38325;DHT22;24126;52.672;13.622;2023-02-12T15:40:15;13.40;74.10
38325;DHT22;24126;52.672;13.622;2023-02-12T15:42:51;13.40;74.20
38325;DHT22;24126;52.672;13.622;2023-02-12T15:45:28;13.40;74.20
38325;DHT22;24126;52.672;13.622;2023-02-12T15:48:08;13.30;74.30
38325;DHT22;24126;52.672;13.622;2023-02-12T15:50:52;13.30;74.40
38325;DHT22;24126;52.672;13.622;2023-02-12T15:53:21;13.30;74.50
38325;DHT22;24126;52.672;13.622;2023-02-12T15:55:49;13.20;74.50
38325;DHT22;24126;52.672;13.622;2023-02-12T15:58:20;13.20;74.50
38325;DHT22;24126;52.672;13.622;2023-02-12T16:00:48;13.20;74.50
38325;DHT22;24126;52.672;13.622;2023-02-12T16:05:51;13.20;74.50
38325;DHT22;24126;52.672;13.622;2023-02-12T16:08:20;13.10;74.50
38325;DHT22;24126;52.672;13.622;2023-02-12T16:10:49;13.10;74.50
38325;DHT22;24126;52.672;13.622;2023-02-12T16:13:18;13.10;74.60
38325;DHT22;24126;52.672;13.622;2023-02-12T16:15:59;13.10;74.60
38325;DHT22;24126;52.672;13.622;2023-02-12T16:18:29;13.00;74.60
38325;DHT22;24126;52.672;13.622;2023-02-12T16:21:00;13.10;74.70
38325;DHT22;24126;52.672;13.622;2023-02-12T16:23:28;13.00;74.70
38325;DHT22;24126;52.672;13.622;2023-02-12T16:25:55;13.00;74.60
38325;DHT22;24126;52.672;13.622;2023-02-12T16:28:23;13.00;74.70
38325;DHT22;24126;52.672;13.622;2023-02-12T16:30:52;13.00;74.80
38325;DHT22;24126;52.672;13.622;2023-02-12T16:38:46;12.90;74.80
38325;DHT22;24126;52.672;13.622;2023-02-12T16:41:20;12.90;74.80
38325;DHT22;24126;52.672;13.622;2023-02-12T16:43:49;12.90;74.80
38325;DHT22;24126;52.672;13.622;2023-02-12T16:46:17;12.90;74.80
38325;DHT22;24126;52.672;13.622;2023-02-12T16:48:45;12.90;74.90
38325;DHT22;24126;52.672;13.622;2023-02-12T16:51:21;12.80;74.80
38325;DHT22;24126;52.672;13.622;2023-02-12T16:53:48;12.80;74.80
38325;DHT22;24126;52.672;13.622;2023-02-12T16:56:20;12.80;74.80
38325;DHT22;24126;52.672;13.622;2023-02-12T16:58:48;12.80;74.90
38325;DHT22;24126;52.672;13.622;2023-02-12T17:01:16;12.80;75.00
38325;DHT22;24126;52.672;13.622;2023-02-12T17:03:44;12.80;74.90
38325;DHT22;24126;52.672;13.622;2023-02-12T17:06:12;12.80;75.00
38325;DHT22;24126;52.672;13.622;2023-02-12T17:08:40;12.80;75.10
38325;DHT22;24126;52.672;13.622;2023-02-12T17:11:07;12.80;75.10
38325;DHT22;24126;52.672;13.622;2023-02-12T17:13:34;12.80;75.10
38325;DHT22;24126;52.672;13.622;2023-02-12T17:16:01;12.70;75.00
38325;DHT22;24126;52.672;13.622;2023-02-12T17:18:28;12.80;75.10
38325;DHT22;24126;52.672;13.622;2023-02-12T17:21:01;12.70;75.20
38325;DHT22;24126;52.672;13.622;2023-02-12T17:23:29;12.70;76.10
38325;DHT22;24126;52.672;13.622;2023-02-12T17:25:56;12.80;76.20
38325;DHT22;24126;52.672;13.622;2023-02-12T17:28:23;12.90;75.50
38325;DHT22;24126;52.672;13.622;2023-02-12T17:30:51;13.00;75.20
38325;DHT22;24126;52.672;13.622;2023-02-12T17:33:19;13.00;75.10
38325;DHT22;24126;52.672;13.622;2023-02-12T17:35:47;12.90;75.00
38325;DHT22;24126;52.672;13.622;2023-02-12T17:38:14;12.90;75.00
38325;DHT22;24126;52.672;13.622;2023-02-12T17:40:41;12.90;75.00
38325;DHT22;24126;52.672;13.622;2023-02-12T17:43:08;12.90;75.20
38325;DHT22;24126;52.672;13.622;2023-02-12T17:45:38;12.90;75.00
38325;DHT22;24126;52.672;13.622;2023-02-12T17:48:05;12.90;75.10
38325;DHT22;24126;52.672;13.622;2023-02-12T17:50:32;12.90;75.10
38325;DHT22;24126;52.672;13.622;2023-02-12T17:52:59;12.80;75.10
38325;DHT22;24126;52.672;13.622;2023-02-12T17:55:26;12.80;75.10
38325;DHT22;24126;52.672;13.622;2023-02-12T17:57:54;12.80;75.20
38325;DHT22;24126;52.672;13.622;2023-02-12T18:00:21;12.80;75.30
38325;DHT22;24126;52.672;13.622;2023-02-12T18:02:50;12.80;75.40
38325;DHT22;24126;52.672;13.622;2023-02-12T18:05:17;12.80;75.60